Latest Weather Observations for Horsham AWS

IDV60801

Issued at 4:05 pm EST Saturday 2 August 2014 (issued every 30 minutes, with the page automatically refreshed every 10 minutes)

About weather observations | Map of weather stations | Latest weather observations for VIC | Other Formats
Station Details ID: 079100 Name: HORSHAM AERODROME Lat: -36.67 Lon: 142.17 Height: 133.8 m
Data from the previous 72 hours. | See also: Recent months at Horsham AWS
Date/Time
EST
Temp
°C
App
Temp
°C
Dew
Point
Rel
Hum
%
Delta-T
°C
Wind Press
QNH
hPa
Press
MSL
hPa
Rain
since 9 am
mm
Dir
 
Spd
km/h
Gust
km/h
Spd
kts
Gust
kts
02/04:00pm 12.0 9.5 1.6 49 4.4 E 4 9 2 5 1031.1 - 0.0
02/03:30pm 11.2 8.5 2.5 55 3.7 S 6 9 3 5 1031.0 - 0.0
02/03:00pm 11.3 8.5 1.8 52 4.0 ESE 6 7 3 4 1031.0 1031.2 0.0
02/02:30pm 10.7 7.2 3.3 60 3.3 S 11 17 6 9 1031.0 - 0.0
02/02:00pm 11.1 7.8 2.2 54 3.8 S 9 13 5 7 1030.9 - 0.0
02/01:30pm 9.8 6.6 2.9 62 3.0 SSW 9 17 5 9 1031.2 - 0.0
02/01:00pm 10.4 7.2 3.0 60 3.2 SW 9 13 5 7 1031.5 - 0.0
02/12:30pm 10.3 7.0 4.7 68 2.5 W 11 15 6 8 1031.8 - 0.0
02/12:00pm 9.2 5.9 4.8 74 2.0 SW 11 13 6 7 1032.0 1032.3 0.0
02/11:30am 8.8 5.7 5.4 79 1.5 SW 11 15 6 8 1032.1 - 0.0
02/11:00am 7.5 3.8 4.6 82 1.3 SW 13 15 7 8 1032.0 - 0.0
02/10:30am 5.7 2.7 4.3 91 0.6 WSW 9 13 5 7 1032.0 - 0.0
02/10:00am 4.1 1.0 3.4 95 0.3 WSW 9 13 5 7 1031.7 - 0.0
02/09:30am 2.7 -0.3 2.3 97 0.2 W 7 9 4 5 1031.6 - 0.0
02/09:00am 1.4 -1.6 1.0 97 0.1 W 6 7 3 4 1031.3 1031.5 1.4
02/08:30am -0.8 -3.0 -1.2 97 0.1 CALM 0 7 0 4 1030.8 - 1.2
02/08:00am -2.5 -5.3 -2.9 97 0.0 SSE 2 6 1 3 1030.5 - 1.2
02/07:30am -2.4 -6.1 -2.8 97 0.0 SSE 7 7 4 4 1030.0 - 1.2
02/07:00am -3.3 -7.1 -3.8 96 0.0 SSE 7 9 4 5 1029.5 - 1.2
02/06:30am -2.5 -4.9 -3.0 96 0.1 CALM 0 0 0 0 1029.0 - 1.2
02/06:00am -1.7 -5.1 -2.3 96 0.1 SW 6 9 3 5 1028.6 1028.9 1.2
02/05:30am -1.8 -5.5 -2.5 95 0.2 SSW 7 11 4 6 1028.1 - 1.2
02/05:00am 0.9 -3.9 0.5 97 0.1 W 15 17 8 9 1027.8 - 1.2
02/04:30am 0.7 -3.7 0.3 97 0.1 W 13 17 7 9 1027.6 - 1.2
02/04:00am 0.3 -4.2 -0.1 97 0.1 W 13 15 7 8 1027.4 - 1.2
02/03:30am 0.2 -4.3 -0.2 97 0.1 WSW 13 17 7 9 1027.2 - 1.2
02/03:00am -0.1 -3.9 -0.5 97 0.1 WSW 9 13 5 7 1027.0 1027.3 1.2
02/02:30am -0.9 -3.1 -1.3 97 0.1 CALM 0 0 0 0 1027.0 - 1.2
02/02:00am 0.2 -3.2 -0.4 96 0.2 WSW 7 9 4 5 1027.0 - 1.2
02/01:30am 0.7 -3.3 0.3 97 0.1 SSW 11 13 6 7 1026.7 - 1.2
02/01:00am 0.9 -3.1 0.3 96 0.2 WSW 11 13 6 7 1026.5 - 1.2
02/12:30am 0.2 -3.0 -0.4 96 0.2 WSW 6 7 3 4 1026.2 - 1.2
02/12:00am 0.9 -2.7 0.3 96 0.2 SW 9 9 5 5 1026.1 1026.4 1.2
 
Date/Time
EST
Temp
°C
App
Temp
°C
Dew
Point
Rel
Hum
%
Delta-T
°C
Wind Press
QNH
hPa
Press
MSL
hPa
Rain
since 9 am
mm
Dir
 
Spd
km/h
Gust
km/h
Spd
kts
Gust
kts
01/11:30pm -0.4 -4.6 -1.1 95 0.2 SSW 11 13 6 7 1025.7 - 1.2
01/11:00pm 0.5 -3.6 -0.4 94 0.3 WSW 11 13 6 7 1025.5 - 1.2
01/10:30pm 1.7 -2.3 0.8 94 0.3 WSW 11 13 6 7 1025.0 - 1.2
01/10:00pm 2.0 -1.5 1.1 94 0.3 WSW 9 11 5 6 1024.6 - 1.2
01/09:30pm 2.2 -0.9 1.2 93 0.4 W 7 9 4 5 1024.2 - 1.2
01/09:00pm 2.5 -1.8 1.3 92 0.5 W 13 15 7 8 1023.5 1023.7 1.2
01/08:30pm 3.3 -1.6 2.1 92 0.5 W 17 22 9 12 1023.0 - 1.2
01/08:00pm 2.9 -1.7 1.7 92 0.5 W 15 19 8 10 1022.6 - 1.2
01/07:30pm 3.7 -0.4 2.4 91 0.5 W 13 17 7 9 1021.9 - 1.2
01/07:00pm 4.0 0.3 2.4 89 0.6 WSW 11 15 6 8 1021.2 - 1.2
01/06:30pm 4.3 -0.5 2.5 88 0.7 WSW 17 24 9 13 1020.2 - 1.2
01/06:00pm 4.4 0.0 2.6 88 0.7 W 15 20 8 11 1019.4 1019.7 1.2
01/05:30pm 4.9 -0.8 2.8 86 0.9 WSW 22 32 12 17 1018.7 - 1.2
01/05:25pm 5.0 -1.1 2.7 85 0.9 WSW 24 32 13 17 1018.7 - 1.2
01/05:09pm 5.7 -4.4 3.5 86 0.9 SSW 46 67 25 36 1018.7 - 1.0
01/05:07pm 5.7 -5.3 2.9 82 1.2 SSW 50 67 27 36 1018.8 - 0.8
01/05:00pm 6.9 2.4 4.2 83 1.2 WSW 17 28 9 15 1018.1 - 0.8
01/04:30pm 7.2 0.4 3.1 75 1.7 WSW 28 35 15 19 1017.2 - 0.6
01/04:00pm 7.3 1.0 3.5 77 1.6 WSW 26 35 14 19 1016.8 - 0.6
01/03:30pm 6.5 0.2 3.8 83 1.2 WSW 26 33 14 18 1016.0 - 0.6
01/03:04pm 5.4 -3.6 2.2 80 1.3 WSW 39 57 21 31 1015.8 - 0.6
01/03:00pm 5.6 -4.2 2.4 80 1.3 WSW 43 57 23 31 1016.0 1016.2 0.6
01/02:33pm 5.8 -4.4 3.1 83 1.1 SW 46 65 25 35 1015.3 - 0.4
01/02:30pm 6.0 -3.6 3.3 83 1.1 SW 43 59 23 32 1015.2 - 0.4
01/02:27pm 6.1 -3.1 3.3 82 1.2 SW 41 59 22 32 1015.2 - 0.4
01/02:00pm 7.9 -0.1 3.6 74 1.9 SW 35 46 19 25 1014.2 - 0.4
01/01:30pm 7.5 0.0 3.4 75 1.8 WSW 32 41 17 22 1013.4 - 0.4
01/01:00pm 6.9 -2.6 3.7 80 1.4 SW 43 59 23 32 1013.1 - 0.4
01/12:37pm 7.1 -1.0 3.3 77 1.6 WSW 35 54 19 29 1012.9 - 0.4
01/12:30pm 6.7 -1.4 3.5 80 1.4 WSW 35 43 19 23 1012.6 - 0.4
01/12:01pm 6.1 -3.7 3.1 81 1.3 W 44 63 24 34 1011.8 - 0.4
01/12:00pm 6.2 -4.0 3.0 80 1.3 W 46 63 25 34 1011.9 1012.1 0.4
01/11:49am 7.6 -1.2 3.8 77 1.6 W 39 61 21 33 1011.6 - 0.4
01/11:30am 8.0 0.4 3.7 74 1.9 WSW 33 46 18 25 1011.0 - 0.4
01/11:00am 7.6 -0.3 4.4 80 1.4 WSW 35 50 19 27 1010.4 - 0.4
01/10:30am 7.0 -0.3 4.7 85 1.0 W 32 44 17 24 1009.0 - 0.4
01/10:00am 5.5 -2.8 4.0 90 0.6 WNW 37 48 20 26 1008.4 - 0.4
01/09:30am 4.7 -3.8 3.4 91 0.5 NW 37 48 20 26 1008.2 - 0.4
01/09:00am 4.6 -1.8 3.3 91 0.5 NW 26 35 14 19 1007.6 1007.8 7.0
01/08:30am 3.4 -4.3 2.4 93 0.4 NW 32 39 17 21 1007.3 - 7.0
01/08:00am 3.7 -3.6 2.5 92 0.5 NW 30 39 16 21 1006.6 - 7.0
01/07:30am 3.8 -3.5 2.6 92 0.5 NW 30 37 16 20 1006.4 - 7.0
01/07:00am 4.3 -4.6 3.1 92 0.5 NW 39 50 21 27 1005.9 - 7.0
01/06:30am 4.1 -3.1 3.2 94 0.4 NNW 30 41 16 22 1005.3 - 7.0
01/06:00am 3.8 -3.8 2.8 93 0.4 NNW 32 41 17 22 1005.0 1005.2 7.0
01/05:30am 4.1 -2.7 3.2 94 0.4 NNW 28 35 15 19 1004.9 - 7.0
01/05:00am 4.2 -2.6 3.2 93 0.4 NW 28 35 15 19 1005.6 - 6.8
01/04:30am 4.4 -2.4 3.2 92 0.5 WNW 28 35 15 19 1005.5 - 6.8
01/04:00am 4.7 -2.0 3.5 92 0.5 NW 28 37 15 20 1005.3 - 6.8
01/03:30am 4.6 -1.8 3.4 92 0.5 NW 26 32 14 17 1005.8 - 6.6
01/03:00am 4.3 -2.9 3.1 92 0.5 NW 30 37 16 20 1005.4 1005.6 6.4
01/02:30am 4.2 -1.9 2.9 91 0.5 NW 24 32 13 17 1005.6 - 6.4
01/02:00am 3.9 -1.0 2.3 89 0.6 NW 17 28 9 15 1005.5 - 6.4
01/01:30am 3.9 -2.3 2.4 90 0.6 NW 24 30 13 16 1005.4 - 6.2
01/01:00am 4.0 -2.2 2.4 89 0.6 NW 24 32 13 17 1005.2 - 6.2
01/12:30am 4.0 -1.4 2.2 88 0.7 NW 20 28 11 15 1005.4 - 6.2
01/12:00am 4.5 -1.6 2.7 88 0.7 WNW 24 32 13 17 1005.5 1005.7 6.2
 
Date/Time
EST
Temp
°C
App
Temp
°C
Dew
Point
Rel
Hum
%
Delta-T
°C
Wind Press
QNH
hPa
Press
MSL
hPa
Rain
since 9 am
mm
Dir
 
Spd
km/h
Gust
km/h
Spd
kts
Gust
kts
31/11:30pm 4.4 -1.3 2.8 89 0.7 NW 22 26 12 14 1005.6 - 6.2
31/11:00pm 5.0 -1.9 2.7 85 0.9 WNW 28 35 15 19 1005.3 - 6.2
31/10:30pm 5.0 -1.4 3.3 89 0.7 WNW 26 35 14 19 1005.3 - 6.2
31/10:00pm 5.0 -1.0 3.3 89 0.7 NW 24 28 13 15 1004.9 - 6.2
31/09:30pm 5.1 -0.5 3.3 88 0.8 NW 22 30 12 16 1004.6 - 6.2
31/09:00pm 5.3 -0.3 3.6 89 0.7 NW 22 28 12 15 1004.4 1004.6 6.2
31/08:30pm 5.7 0.6 3.9 88 0.8 NW 20 26 11 14 1004.2 - 6.2
31/08:00pm 5.9 0.0 3.9 87 0.9 W 24 32 13 17 1004.2 - 6.2
31/07:30pm 5.9 0.1 4.2 89 0.7 W 24 37 13 20 1004.3 - 6.0
31/07:00pm 6.3 -0.1 5.1 92 0.5 WSW 28 41 15 22 1004.1 - 5.8
31/06:30pm 6.5 -1.3 5.1 91 0.6 WSW 35 52 19 28 1003.3 - 5.6
31/06:22pm 7.3 1.1 6.2 93 0.5 W 28 50 15 27 1002.8 - 5.0
31/06:00pm 7.3 2.3 6.4 94 0.4 WNW 22 28 12 15 1002.1 1002.3 4.6
31/05:30pm 7.3 2.9 6.6 95 0.3 WNW 19 24 10 13 1001.8 - 4.4
31/05:00pm 7.4 2.0 6.5 94 0.4 WNW 24 32 13 17 1001.9 - 4.0
31/04:30pm 7.4 2.0 6.3 93 0.5 W 24 32 13 17 1001.4 - 3.6
31/04:00pm 7.1 0.5 5.9 92 0.5 W 30 37 16 20 1001.4 - 3.2
31/03:30pm 7.5 0.5 6.1 91 0.6 W 32 41 17 22 1001.3 - 2.4
31/03:21pm 7.7 -0.2 6.3 91 0.6 WSW 37 50 20 27 1001.2 - 2.2
31/03:00pm 8.2 1.8 7.0 92 0.6 WSW 30 43 16 23 1000.7 1000.9 1.6
31/02:52pm 8.7 2.4 7.5 92 0.6 WSW 30 44 16 24 1000.5 - 1.6
31/02:34pm 9.1 3.2 7.7 91 0.7 W 28 52 15 28 1000.1 - 1.0
31/02:30pm 9.3 3.5 7.9 91 0.7 WSW 28 39 15 21 999.7 - 1.0
31/02:00pm 9.5 0.8 8.3 92 0.6 WSW 44 65 24 35 999.5 - 1.0
31/01:38pm 10.5 -0.2 7.9 84 1.3 W 54 72 29 39 999.0 - 0.4
31/01:37pm 11.2 0.1 8.2 82 1.5 W 56 72 30 39 999.0 - 0.4
31/01:30pm 13.5 1.4 9.4 76 2.1 NW 63 83 34 45 997.2 - 0.0
31/01:00pm 15.2 3.9 8.0 62 3.6 NNW 57 76 31 41 997.4 - 0.0
31/12:55pm 15.3 3.9 7.6 60 3.9 NNW 57 76 31 41 997.4 - 0.0
31/12:30pm 15.8 4.5 7.8 59 4.0 NW 57 72 31 39 998.2 - 0.0
31/12:00pm 16.2 4.2 8.2 59 4.1 NW 61 82 33 44 998.8 998.9 0.0
31/11:32am 15.8 5.3 8.8 63 3.6 NNW 54 72 29 39 999.4 - 0.0
31/11:30am 15.6 4.5 8.1 61 3.8 NW 56 72 30 39 999.4 - 0.0
31/11:01am 14.9 4.7 8.6 66 3.2 NNW 52 70 28 38 1000.2 - 0.0
31/11:00am 14.8 4.2 8.5 66 3.2 NNW 54 70 29 38 1000.3 - 0.0
31/10:30am 13.6 4.0 8.0 69 2.8 NNW 48 61 26 33 1001.2 - 0.0
31/10:00am 12.7 2.6 7.2 69 2.7 NNW 50 61 27 33 1001.5 - 0.0
31/09:30am 12.1 3.0 7.0 71 2.5 NNW 44 57 24 31 1002.0 - 0.0
31/09:00am 11.6 2.6 6.5 71 2.4 NNW 43 56 23 30 1002.4 1002.6 0.0
31/08:30am 10.9 2.7 6.5 74 2.1 NNW 39 50 21 27 1002.8 - 0.0
31/08:10am 10.2 3.3 6.5 78 1.7 NNW 32 50 17 27 1003.3 - 0.0
31/08:00am 10.2 3.1 6.5 78 1.7 NNW 33 46 18 25 1003.3 - 0.0
31/07:30am 8.6 2.5 6.7 88 0.9 N 28 33 15 18 1003.7 - 0.0
31/07:00am 9.0 2.6 7.0 87 0.9 N 30 37 16 20 1003.9 - 0.0
31/06:30am 9.2 2.9 7.3 88 0.9 N 30 37 16 20 1004.0 - 0.0
31/06:00am 8.7 3.1 7.3 91 0.7 N 26 30 14 16 1004.4 1004.6 0.0
31/05:30am 9.1 3.2 7.5 90 0.8 N 28 35 15 19 1004.7 - 0.0
31/05:00am 10.5 4.3 7.9 84 1.3 N 30 37 16 20 1005.1 - 0.0
31/04:30am 11.0 4.5 8.2 83 1.4 N 32 43 17 23 1005.6 - 0.0
31/04:00am 10.4 4.3 8.3 87 1.0 N 30 35 16 19 1006.0 - 0.0
31/03:30am 11.3 4.9 8.5 83 1.4 NNW 32 43 17 23 1006.7 - 0.0
31/03:00am 12.0 5.5 8.8 81 1.6 NNW 33 43 18 23 1007.3 1007.5 0.0
31/02:30am 11.9 6.0 8.9 82 1.5 NNW 30 37 16 20 1007.7 - 0.0
31/02:00am 11.3 5.8 9.0 86 1.2 NNW 28 35 15 19 1008.2 - 0.0
31/01:30am 11.5 6.8 9.4 87 1.1 NNW 24 32 13 17 1008.6 - 0.0
31/01:00am 11.8 7.2 9.5 86 1.2 N 24 32 13 17 1008.9 - 0.0
31/12:30am 12.1 7.1 9.7 85 1.2 N 26 35 14 19 1009.4 - 0.0
31/12:00am 12.0 6.7 9.7 86 1.2 NNW 28 37 15 20 1010.0 1010.2 0.0
 
Date/Time
EST
Temp
°C
App
Temp
°C
Dew
Point
Rel
Hum
%
Delta-T
°C
Wind Press
QNH
hPa
Press
MSL
hPa
Rain
since 9 am
mm
Dir
 
Spd
km/h
Gust
km/h
Spd
kts
Gust
kts
30/11:30pm 11.6 7.1 9.9 89 0.9 NNW 24 30 13 16 1010.5 - 0.0
30/11:00pm 11.9 7.8 10.1 89 0.9 N 22 28 12 15 1010.9 - 0.0
30/10:30pm 12.1 8.0 10.2 88 1.0 NNW 22 28 12 15 1011.3 - 0.0
30/10:00pm 12.4 7.2 10.1 86 1.2 NNW 28 35 15 19 1011.6 - 0.0
30/09:30pm 12.7 7.5 10.1 84 1.3 NNW 28 37 15 20 1011.9 - 0.0
30/09:00pm 13.1 7.0 9.7 80 1.8 NNW 32 43 17 23 1012.0 1012.2 0.0
30/08:30pm 13.5 6.8 9.7 78 2.0 NNW 35 43 19 23 1012.1 - 0.0
30/08:00pm 13.3 7.6 9.7 79 1.9 NNW 30 41 16 22 1012.0 - 0.0
30/07:30pm 13.0 7.5 9.3 78 1.9 NNW 28 35 15 19 1011.9 - 0.0
30/07:00pm 13.0 9.0 9.1 77 2.0 NNW 20 24 11 13 1012.3 - 0.0
30/06:30pm 13.3 8.5 9.0 75 2.2 NW 24 32 13 17 1012.3 - 0.0
30/06:00pm 13.2 8.5 9.1 76 2.1 NW 24 30 13 16 1012.3 1012.5 0.0
30/05:30pm 14.4 7.2 9.0 70 2.8 NW 37 48 20 26 1012.1 - 0.0
30/05:03pm 14.9 8.2 9.5 70 2.8 NW 35 54 19 29 1011.9 - 0.0
30/05:00pm 14.9 7.4 9.5 70 2.8 NW 39 54 21 29 1011.9 - 0.0
30/04:30pm 15.3 9.1 10.1 71 2.7 NW 33 44 18 24 1011.9 - 0.0

Other Formats:

Comma delimited format used in spreadsheet applications
http://www.bom.gov.au/fwo/IDV60801/IDV60801.95839.axf

JavaScript Object Notation format (JSON) in row-major order
http://www.bom.gov.au/fwo/IDV60801/IDV60801.95839.json